Time;durP1;ratioP1;P1;durP2;ratioP2;P2;SDS_P1;SDS_P2;PMS_P1;PMS_P2;Temp;Humidity;BMP_temperature;BMP_pressure;BME280_temperature;BME280_humidity;BME280_pressure;Samples;Min_cycle;Max_cycle;Signal;HPM_P1;HPM_P2
2022/09/13 00:00:20;;;;;;;5.15;3.58;;;;;;;13.78;64.82;94651.22;5109869;28;20042;-73
2022/09/13 00:02:46;;;;;;;3.80;3.40;;;;;;;13.76;64.81;94644.50;5109196;28;20020;-73
2022/09/13 00:05:11;;;;;;;5.68;3.65;;;;;;;13.77;64.84;94649.59;5086468;28;20332;-72
2022/09/13 00:07:37;;;;;;;4.28;3.70;;;;;;;13.88;64.72;94655.56;5130310;28;20093;-73
2022/09/13 00:10:03;;;;;;;4.80;3.40;;;;;;;13.81;64.76;94635.25;5131392;27;20031;-73
2022/09/13 00:12:28;;;;;;;4.70;4.20;;;;;;;13.84;64.98;94639.34;5112309;28;20339;-72
2022/09/13 00:14:54;;;;;;;5.05;3.63;;;;;;;13.80;65.18;94633.63;5109933;28;20100;-73
2022/09/13 00:17:20;;;;;;;4.00;3.60;;;;;;;13.92;65.18;94641.22;5092601;28;20141;-73
2022/09/13 00:19:45;;;;;;;4.25;3.60;;;;;;;13.93;65.30;94632.41;5113945;28;20019;-73
2022/09/13 00:22:11;;;;;;;4.93;3.95;;;;;;;13.94;65.01;94628.84;5130156;28;20112;-73
2022/09/13 00:24:36;;;;;;;5.53;3.80;;;;;;;14.01;65.09;94624.63;5131364;27;20035;-73
2022/09/13 00:27:02;;;;;;;4.00;3.53;;;;;;;14.09;64.28;94622.06;5108862;28;20108;-72
2022/09/13 00:29:27;;;;;;;5.50;4.15;;;;;;;14.05;64.91;94612.91;5109724;28;20111;-73
2022/09/13 00:31:53;;;;;;;6.80;3.50;;;;;;;14.05;64.60;94616.34;5092445;28;20027;-72
2022/09/13 00:34:18;;;;;;;5.03;3.17;;;;;;;14.14;64.79;94613.78;5110641;28;20036;-73
2022/09/13 00:36:44;;;;;;;4.85;3.53;;;;;;;14.11;64.63;94614.91;5096677;28;20038;-72
2022/09/13 00:39:10;;;;;;;4.47;3.70;;;;;;;14.17;64.65;94605.66;5113424;28;20027;-73
2022/09/13 00:41:35;;;;;;;6.32;3.50;;;;;;;14.21;64.32;94599.16;5102014;27;20492;-73
2022/09/13 00:44:01;;;;;;;6.28;3.85;;;;;;;14.25;64.30;94600.47;5116833;27;20023;-73
2022/09/13 00:46:28;;;;;;;5.15;3.67;;;;;;;14.33;64.29;94602.31;5116629;27;20416;-73
2022/09/13 00:48:58;;;;;;;4.68;3.50;;;;;;;14.37;64.55;94598.41;5133885;27;20031;-73
2022/09/13 00:51:24;;;;;;;4.03;3.58;;;;;;;14.33;64.72;94602.31;5096490;28;20137;-73
2022/09/13 00:53:50;;;;;;;5.25;3.67;;;;;;;14.41;64.18;94607.59;5113197;28;20039;-73
2022/09/13 00:56:26;;;;;;;5.20;3.75;;;;;;;14.31;63.82;94598.06;5096255;27;20023;-73
2022/09/13 00:58:57;;;;;;;5.15;4.03;;;;;;;14.36;63.80;94592.38;5079610;28;20604;-73
2022/09/13 01:01:24;;;;;;;4.93;3.63;;;;;;;14.38;64.31;94597.44;5113011;28;20497;-73
2022/09/13 01:03:50;;;;;;;4.38;3.97;;;;;;;14.48;64.32;94598.13;5112095;28;20032;-73
2022/09/13 01:06:18;;;;;;;4.97;3.22;;;;;;;14.53;64.42;94598.53;5095451;28;20035;-73
2022/09/13 01:08:45;;;;;;;5.07;3.55;;;;;;;14.51;63.80;94589.97;5113691;27;20103;-73
2022/09/13 01:11:16;;;;;;;4.40;3.35;;;;;;;14.49;63.70;94597.19;5117967;27;20046;-73
2022/09/13 01:13:41;;;;;;;4.60;3.53;;;;;;;14.47;63.97;94589.47;5099632;27;20032;-72
2022/09/13 01:16:07;;;;;;;4.22;3.33;;;;;;;14.49;63.50;94595.38;5133303;27;20042;-73
2022/09/13 01:18:32;;;;;;;5.72;3.65;;;;;;;14.37;64.51;94593.19;5094652;28;20055;-73
2022/09/13 01:21:25;;;;;;;4.55;3.40;;;;;;;14.45;64.43;94594.03;5112398;28;20036;-73
2022/09/13 01:23:56;;;;;;;4.55;3.72;;;;;;;14.32;64.82;94580.59;5113955;28;20035;-72
2022/09/13 01:26:51;;;;;;;6.13;3.80;;;;;;;14.35;64.58;94585.50;5099895;27;20051;-73
2022/09/13 01:29:19;;;;;;;5.40;4.20;;;;;;;14.24;64.22;94589.22;5133335;27;20424;-73
2022/09/13 01:31:49;;;;;;;4.80;4.13;;;;;;;14.18;63.93;94599.44;5134009;27;20128;-73
2022/09/13 01:34:42;;;;;;;5.13;4.47;;;;;;;14.21;64.07;94591.31;5115108;27;20043;-73
2022/09/13 01:37:43;;;;;;;5.15;4.20;;;;;;;14.23;64.36;94587.56;5107879;28;20039;-74
2022/09/13 01:40:28;;;;;;;4.47;3.97;;;;;;;14.23;63.46;94584.94;5112408;28;20078;-73
2022/09/13 01:43:23;;;;;;;4.97;3.90;;;;;;;14.30;63.36;94577.31;5107671;28;20031;-73
2022/09/13 01:46:05;;;;;;;5.78;3.80;;;;;;;14.47;63.24;94586.06;5096192;28;20044;-73
2022/09/13 01:48:39;;;;;;;5.70;3.80;;;;;;;14.50;63.16;94583.13;5112497;28;20028;-73
2022/09/13 01:51:08;;;;;;;5.28;3.90;;;;;;;14.47;63.60;94580.84;5113515;28;20043;-73
2022/09/13 01:53:39;;;;;;;3.90;3.50;;;;;;;14.48;63.53;94579.84;5112193;28;20038;-73
2022/09/13 01:56:19;;;;;;;5.18;4.10;;;;;;;14.31;63.71;94577.16;5129177;27;20031;-75
2022/09/13 01:59:04;;;;;;;4.90;4.05;;;;;;;14.27;63.73;94568.00;5112013;28;20506;-72
2022/09/13 02:01:32;;;;;;;4.38;3.97;;;;;;;14.45;64.01;94577.53;5096921;28;20128;-73
2022/09/13 02:04:03;;;;;;;5.43;3.38;;;;;;;14.48;64.26;94579.84;5112223;27;20023;-73
2022/09/13 02:06:37;;;;;;;5.07;3.85;;;;;;;14.53;64.20;94580.22;5112934;28;20119;-73
2022/09/13 02:09:08;;;;;;;4.05;3.65;;;;;;;14.46;64.04;94574.78;5097501;27;20036;-72
2022/09/13 02:11:34;;;;;;;4.07;3.33;;;;;;;14.43;64.40;94575.09;5097441;27;20031;-72
2022/09/13 02:14:13;;;;;;;3.80;3.40;;;;;;;14.35;64.49;94563.78;5094690;28;20035;-72
2022/09/13 02:16:50;;;;;;;4.57;3.50;;;;;;;14.24;64.50;94578.75;5104508;28;20035;-72
2022/09/13 02:19:23;;;;;;;4.72;3.40;;;;;;;14.32;64.41;94575.38;5095813;28;20046;-72
2022/09/13 02:21:55;;;;;;;3.85;3.38;;;;;;;14.34;64.77;94573.41;5111700;28;20039;-73
2022/09/13 02:24:24;;;;;;;4.45;3.70;;;;;;;14.27;64.69;94577.63;5077878;28;20031;-72
2022/09/13 02:26:51;;;;;;;6.40;3.47;;;;;;;14.27;65.41;94575.03;5112487;28;20023;-73
2022/09/13 02:29:17;;;;;;;4.15;3.70;;;;;;;14.23;65.45;94574.50;5115217;27;20031;-72
2022/09/13 02:31:53;;;;;;;5.97;4.00;;;;;;;14.25;65.31;94576.97;5104657;27;20063;-73
2022/09/13 02:34:23;;;;;;;4.50;3.72;;;;;;;14.09;64.69;94554.97;5129492;27;20046;-73
2022/09/13 02:36:49;;;;;;;4.25;3.17;;;;;;;14.16;65.78;94575.28;5127274;27;20050;-73
2022/09/13 02:39:16;;;;;;;4.18;3.25;;;;;;;14.11;65.80;94567.09;5128488;27;20031;-73
2022/09/13 02:41:51;;;;;;;5.40;3.70;;;;;;;14.08;65.64;94578.66;5111507;27;20070;-73
2022/09/13 02:44:32;;;;;;;4.25;3.38;;;;;;;14.02;65.77;94584.50;5130144;27;20088;-73
2022/09/13 02:47:04;;;;;;;4.47;3.38;;;;;;;14.06;65.83;94580.59;5128809;27;20112;-74
2022/09/13 02:49:51;;;;;;;4.80;3.65;;;;;;;13.92;65.90;94578.56;5129113;27;20110;-72
2022/09/13 02:52:44;;;;;;;4.10;3.58;;;;;;;13.96;65.83;94585.94;5123881;27;20175;-72
2022/09/13 02:55:24;;;;;;;6.45;4.00;;;;;;;13.73;66.36;94575.16;5128169;27;20027;-73
2022/09/13 02:58:07;;;;;;;4.05;3.20;;;;;;;13.68;66.31;94577.41;5109636;27;20041;-72
2022/09/13 03:00:32;;;;;;;7.28;3.55;;;;;;;13.65;66.77;94585.56;5123361;27;20031;-72
2022/09/13 03:02:59;;;;;;;5.75;3.65;;;;;;;13.61;66.56;94582.41;5127102;27;20515;-72
2022/09/13 03:05:24;;;;;;;4.05;3.58;;;;;;;13.68;66.66;94582.63;5110002;27;20031;-72
2022/09/13 03:07:49;;;;;;;5.13;3.85;;;;;;;13.62;67.09;94581.47;5128853;27;20500;-72
2022/09/13 03:10:15;;;;;;;5.32;3.47;;;;;;;13.68;66.90;94584.41;5108222;27;20912;-72
2022/09/13 03:12:50;;;;;;;4.65;3.80;;;;;;;13.61;66.87;94589.41;5109107;27;20030;-71
2022/09/13 03:15:38;;;;;;;5.80;4.05;;;;;;;13.60;66.75;94587.78;5128965;27;20031;-72
2022/09/13 03:18:39;;;;;;;6.03;4.07;;;;;;;13.62;67.00;94591.06;5107660;27;20063;-72
2022/09/13 03:21:23;;;;;;;4.40;3.65;;;;;;;13.58;66.75;94593.16;5088774;27;20095;-72
2022/09/13 03:24:05;;;;;;;4.13;3.50;;;;;;;13.58;66.67;94587.94;5127384;27;20065;-72
2022/09/13 03:26:52;;;;;;;4.05;3.58;;;;;;;13.59;66.71;94591.34;5127756;27;20023;-72
2022/09/13 03:29:28;;;;;;;4.15;3.70;;;;;;;13.51;66.60;94597.34;5126076;27;20378;-72
2022/09/13 03:31:59;;;;;;;5.70;3.28;;;;;;;13.35;67.32;94590.19;5124793;27;20035;-72
2022/09/13 03:34:37;;;;;;;6.32;3.42;;;;;;;13.25;67.75;94591.19;5128319;27;20070;-72
2022/09/13 03:37:30;;;;;;;4.75;3.65;;;;;;;13.24;67.58;94592.16;5093531;27;20027;-72
2022/09/13 03:40:05;;;;;;;6.88;4.05;;;;;;;13.24;67.81;94592.16;5128206;27;20035;-73
2022/09/13 03:42:36;;;;;;;6.97;4.97;;;;;;;13.17;67.65;94599.75;5129396;27;20057;-72
2022/09/13 03:45:02;;;;;;;7.65;6.00;;;;;;;13.14;67.66;94587.81;5109032;28;20092;-72
2022/09/13 03:47:31;;;;;;;7.32;5.68;;;;;;;13.12;67.72;94596.75;5104776;28;20067;-72
2022/09/13 03:49:56;;;;;;;6.03;5.15;;;;;;;13.13;67.70;94582.78;5093145;28;20027;-72
2022/09/13 03:52:22;;;;;;;7.07;5.53;;;;;;;13.10;67.58;94593.50;5089746;28;20413;-72
2022/09/13 03:54:47;;;;;;;7.07;4.40;;;;;;;13.06;67.93;94597.34;5127376;28;20035;-73
2022/09/13 03:57:19;;;;;;;5.30;4.05;;;;;;;13.04;68.07;94599.28;5126309;28;20031;-72
2022/09/13 03:59:55;;;;;;;4.57;3.80;;;;;;;13.03;67.89;94603.69;5102559;28;20039;-72
2022/09/13 04:02:22;;;;;;;5.22;3.58;;;;;;;12.92;68.16;94596.06;5126835;27;20129;-73
2022/09/13 04:04:47;;;;;;;5.47;3.30;;;;;;;12.79;67.86;94606.84;5106540;28;20036;-72
2022/09/13 04:07:15;;;;;;;3.55;3.15;;;;;;;12.72;68.15;94608.38;5111697;27;20019;-72
2022/09/13 04:09:41;;;;;;;5.65;3.60;;;;;;;12.66;68.81;94601.16;5107705;28;20023;-72
2022/09/13 04:12:08;;;;;;;4.80;3.25;;;;;;;12.66;68.84;94595.94;5110178;27;20062;-73
2022/09/13 04:14:34;;;;;;;4.00;3.35;;;;;;;12.55;69.20;94596.13;5129222;27;20493;-72
2022/09/13 04:16:59;;;;;;;4.43;3.53;;;;;;;12.56;69.40;94589.94;5112693;27;20047;-72
2022/09/13 04:19:25;;;;;;;3.92;3.20;;;;;;;12.59;69.40;94598.31;5130629;27;20042;-72
2022/09/13 04:21:52;;;;;;;5.35;3.22;;;;;;;12.61;69.39;94593.75;5094499;27;20289;-72
2022/09/13 04:24:17;;;;;;;3.85;3.40;;;;;;;12.68;69.05;94604.44;5132824;27;20087;-72
2022/09/13 04:26:43;;;;;;;3.75;3.25;;;;;;;12.64;69.23;94600.47;5135008;27;20027;-72
2022/09/13 04:29:10;;;;;;;4.80;3.60;;;;;;;12.53;69.50;94599.69;5129093;27;20571;-72
2022/09/13 04:31:35;;;;;;;4.35;3.45;;;;;;;12.55;69.36;94596.94;5091651;27;20055;-72
2022/09/13 04:34:02;;;;;;;3.88;3.47;;;;;;;12.51;69.47;94598.22;5097317;27;20070;-72
2022/09/13 04:36:27;;;;;;;5.25;3.22;;;;;;;12.52;69.55;94598.06;5112785;27;20487;-72
2022/09/13 04:38:53;;;;;;;3.88;3.22;;;;;;;12.56;69.52;94605.59;5114878;27;20035;-72
2022/09/13 04:41:18;;;;;;;6.13;3.15;;;;;;;12.52;69.98;94605.06;5113153;28;20042;-72
2022/09/13 04:43:48;;;;;;;4.05;3.17;;;;;;;12.43;70.37;94609.34;5114802;28;20043;-72
2022/09/13 04:46:14;;;;;;;5.90;3.00;;;;;;;12.55;69.97;94616.97;5109064;28;20028;-72
2022/09/13 04:48:39;;;;;;;3.55;2.90;;;;;;;12.62;69.52;94623.25;5124193;27;20054;-72
2022/09/13 04:51:05;;;;;;;3.47;3.00;;;;;;;12.55;69.56;94624.81;5101811;27;20027;-72
2022/09/13 04:53:31;;;;;;;4.28;3.13;;;;;;;12.51;69.37;94619.88;5125633;27;20042;-72
2022/09/13 04:56:00;;;;;;;4.00;3.10;;;;;;;12.49;69.34;94618.38;5124195;27;20027;-73
2022/09/13 04:58:26;;;;;;;7.32;3.15;;;;;;;12.53;69.38;94633.56;5133604;27;20496;-72
2022/09/13 05:00:55;;;;;;;4.50;3.10;;;;;;;12.57;69.81;94633.31;5133428;27;20106;-72
2022/09/13 05:03:21;;;;;;;4.75;3.38;;;;;;;12.75;69.63;94636.78;5129146;27;20035;-72
2022/09/13 05:05:47;;;;;;;5.53;3.17;;;;;;;13.48;67.17;94634.16;5126534;27;20027;-73
2022/09/13 05:08:12;;;;;;;3.75;3.10;;;;;;;14.37;63.93;94622.75;5136764;27;20041;-72
2022/09/13 05:10:38;;;;;;;3.75;2.70;;;;;;;15.15;61.33;94630.44;5136828;27;20030;-72
2022/09/13 05:13:03;;;;;;;7.20;3.28;;;;;;;15.95;58.71;94635.19;5136740;27;20495;-72
2022/09/13 05:15:28;;;;;;;5.38;3.20;;;;;;;16.68;56.69;94620.31;5128393;27;20031;-73
2022/09/13 05:17:54;;;;;;;3.83;2.50;;;;;;;17.21;55.30;94626.69;5131177;27;20054;-74
2022/09/13 05:20:20;;;;;;;3.65;2.97;;;;;;;18.01;53.19;94620.25;5123049;27;20050;-72
2022/09/13 05:22:45;;;;;;;5.03;2.90;;;;;;;18.48;51.18;94609.47;5120611;27;20087;-73
2022/09/13 05:25:11;;;;;;;3.40;2.70;;;;;;;18.80;49.74;94609.31;5124518;27;20124;-72
2022/09/13 05:27:36;;;;;;;4.07;2.53;;;;;;;18.84;50.28;94621.94;5127391;27;20031;-72
2022/09/13 05:30:02;;;;;;;3.40;2.55;;;;;;;18.75;50.82;94623.84;5123702;27;20031;-72
2022/09/13 05:32:29;;;;;;;3.58;2.67;;;;;;;18.50;51.23;94604.03;5119369;27;20035;-75
2022/09/13 05:34:54;;;;;;;5.00;2.72;;;;;;;18.46;51.47;94626.41;5084859;28;20447;-73
2022/09/13 05:37:20;;;;;;;6.65;3.20;;;;;;;18.35;49.99;94622.41;5126179;27;20513;-74
2022/09/13 05:39:45;;;;;;;6.50;3.42;;;;;;;18.23;50.97;94619.41;5130186;27;20492;-73
2022/09/13 05:42:11;;;;;;;4.25;3.30;;;;;;;18.20;52.19;94625.03;5110429;27;20031;-73
2022/09/13 05:44:36;;;;;;;4.82;3.20;;;;;;;18.19;51.36;94618.16;5126429;27;20038;-73
2022/09/13 05:47:02;;;;;;;6.30;3.33;;;;;;;18.09;52.96;94620.19;5130489;27;20027;-73
2022/09/13 05:49:27;;;;;;;6.90;3.58;;;;;;;18.05;52.88;94621.53;5096820;28;20039;-73
2022/09/13 05:51:52;;;;;;;6.65;4.07;;;;;;;18.06;51.73;94624.00;5117793;27;20031;-73
2022/09/13 05:54:18;;;;;;;5.10;4.20;;;;;;;18.05;51.66;94618.91;5125317;27;20035;-73
2022/09/13 05:57:13;;;;;;;5.80;4.47;;;;;;;17.82;51.99;94616.31;5100393;27;20076;-73
2022/09/13 05:59:39;;;;;;;6.82;3.85;;;;;;;17.59;52.72;94613.66;5110126;27;20149;-73
2022/09/13 06:02:04;;;;;;;10.35;4.22;;;;;;;17.50;53.08;94622.59;5124560;27;20019;-73
2022/09/13 06:04:30;;;;;;;4.10;3.70;;;;;;;17.52;54.22;94625.84;5123740;27;20434;-73
2022/09/13 06:06:55;;;;;;;5.82;3.83;;;;;;;17.57;53.92;94613.00;5114636;27;20019;-73
2022/09/13 06:09:21;;;;;;;6.72;4.03;;;;;;;17.64;54.19;94616.59;5113001;27;20035;-73
2022/09/13 06:11:46;;;;;;;5.78;4.07;;;;;;;17.58;54.41;94625.97;5109441;28;20481;-71
2022/09/13 06:14:12;;;;;;;7.65;4.57;;;;;;;17.47;54.00;94620.28;5090053;28;20104;-71
2022/09/13 06:16:37;;;;;;;6.55;4.80;;;;;;;17.56;52.97;94627.94;5109222;28;20051;-72
2022/09/13 06:19:03;;;;;;;4.88;4.30;;;;;;;17.63;53.60;94625.44;5109283;27;20088;-71
2022/09/13 06:21:28;;;;;;;4.20;2.92;;;;;;;17.55;51.95;94625.50;5092907;28;20550;-71
2022/09/13 06:23:53;;;;;;;6.72;2.50;;;;;;;17.62;50.83;94642.19;5108704;28;20039;-71
2022/09/13 06:26:20;;;;;;;3.28;2.70;;;;;;;17.58;50.65;94635.69;5093137;28;20027;-71
2022/09/13 06:28:47;;;;;;;3.90;2.50;;;;;;;17.63;50.22;94644.66;5110401;28;20023;-71
2022/09/13 06:31:13;;;;;;;4.97;2.60;;;;;;;17.59;49.96;94647.81;5112314;28;20028;-71
2022/09/13 06:33:40;;;;;;;4.22;2.67;;;;;;;17.62;50.26;94636.94;5094001;28;20414;-71
2022/09/13 06:36:18;;;;;;;3.35;2.33;;;;;;;17.56;49.79;94632.41;5077303;28;20028;-71
2022/09/13 06:38:50;;;;;;;3.55;2.60;;;;;;;17.68;50.71;94646.75;5111293;28;20131;-72
2022/09/13 06:41:20;;;;;;;3.42;2.63;;;;;;;17.73;51.03;94654.94;5094867;28;20023;-72
2022/09/13 06:43:49;;;;;;;3.78;2.83;;;;;;;17.89;50.24;94646.16;5111575;28;20039;-71
2022/09/13 06:46:16;;;;;;;5.50;2.80;;;;;;;18.03;49.92;94650.63;5077672;28;20085;-71
2022/09/13 06:48:42;;;;;;;5.63;3.00;;;;;;;18.18;49.23;94652.47;5093934;28;20036;-71
2022/09/13 06:51:13;;;;;;;5.60;2.90;;;;;;;18.38;48.66;94655.44;5076887;28;20117;-71
2022/09/13 06:53:39;;;;;;;4.20;2.72;;;;;;;18.41;48.67;94655.88;5094502;28;20087;-71
2022/09/13 06:56:06;;;;;;;4.00;2.45;;;;;;;18.48;48.31;94661.25;5077011;28;20085;-71
2022/09/13 06:58:32;;;;;;;3.50;2.65;;;;;;;18.49;48.35;94665.50;5110754;28;20065;-71
2022/09/13 07:01:25;;;;;;;4.47;2.83;;;;;;;18.54;47.98;94668.41;5093850;28;20032;-71
2022/09/13 07:03:51;;;;;;;3.45;2.60;;;;;;;18.57;48.44;94673.31;5094897;28;20044;-71
2022/09/13 07:06:19;;;;;;;3.53;2.63;;;;;;;18.60;48.96;94665.06;5076846;28;20050;-71
2022/09/13 07:08:45;;;;;;;5.80;3.00;;;;;;;18.68;48.57;94654.47;5110638;28;20053;-71
2022/09/13 07:11:11;;;;;;;5.47;3.55;;;;;;;18.87;48.73;94655.78;5093569;28;20032;-71
2022/09/13 07:13:37;;;;;;;5.32;2.88;;;;;;;18.85;48.42;94659.59;5093672;28;20031;-71
2022/09/13 07:16:04;;;;;;;3.80;2.70;;;;;;;18.98;47.82;94662.41;5110777;28;20421;-72
2022/09/13 07:18:30;;;;;;;4.20;3.08;;;;;;;19.11;48.22;94669.63;5110342;28;20557;-71
2022/09/13 07:21:06;;;;;;;4.40;2.67;;;;;;;19.14;47.48;94667.47;5110317;28;20035;-71
2022/09/13 07:23:34;;;;;;;3.78;2.78;;;;;;;19.18;47.05;94665.28;5110482;28;20051;-71
2022/09/13 07:26:04;;;;;;;3.35;2.30;;;;;;;19.22;46.75;94665.72;5093417;28;20054;-71
2022/09/13 07:28:34;;;;;;;3.38;2.70;;;;;;;19.11;46.15;94667.84;5077759;28;20031;-71
2022/09/13 07:31:10;;;;;;;4.93;2.75;;;;;;;18.98;47.00;94670.31;5093836;28;20115;-71
2022/09/13 07:33:37;;;;;;;3.78;2.58;;;;;;;19.07;47.45;94663.94;5111316;28;20053;-71
2022/09/13 07:36:05;;;;;;;10.45;2.72;;;;;;;19.10;47.15;94658.28;5093359;28;20508;-71
2022/09/13 07:38:34;;;;;;;3.33;2.60;;;;;;;19.10;46.67;94673.28;5093486;28;20533;-71
2022/09/13 07:40:59;;;;;;;4.88;2.35;;;;;;;19.23;46.13;94672.66;5093592;28;20493;-71
2022/09/13 07:43:25;;;;;;;4.95;2.40;;;;;;;19.39;45.43;94670.63;5110091;28;20040;-71
2022/09/13 07:45:57;;;;;;;3.90;2.83;;;;;;;19.47;45.51;94674.13;5109327;28;20516;-71
2022/09/13 07:48:23;;;;;;;3.72;2.40;;;;;;;19.36;45.07;94683.31;5110012;28;20097;-71
2022/09/13 07:51:05;;;;;;;5.20;2.50;;;;;;;19.44;43.70;94680.59;5109989;28;20035;-71
2022/09/13 07:53:31;;;;;;;3.55;2.55;;;;;;;19.50;43.66;94673.75;5093567;28;20039;-71
2022/09/13 07:56:04;;;;;;;4.55;2.40;;;;;;;19.45;44.26;94679.59;5093072;28;20429;-71
2022/09/13 07:58:30;;;;;;;4.15;2.38;;;;;;;19.42;44.79;94677.34;5093018;28;20504;-71
2022/09/13 08:01:18;;;;;;;7.70;2.20;;;;;;;19.68;43.93;94681.31;5109937;28;20130;-71
2022/09/13 08:03:43;;;;;;;2.53;2.08;;;;;;;19.88;42.59;94674.41;5109979;28;20386;-71
2022/09/13 08:06:09;;;;;;;3.78;2.20;;;;;;;19.99;41.64;94678.38;5093230;28;20107;-71
2022/09/13 08:08:35;;;;;;;2.83;1.80;;;;;;;19.95;40.98;94677.94;5076058;28;20035;-71
2022/09/13 08:11:01;;;;;;;4.97;2.25;;;;;;;19.88;42.92;94687.59;5109814;28;20023;-71
2022/09/13 08:13:27;;;;;;;3.35;2.15;;;;;;;19.80;42.01;94680.63;5109745;28;20547;-70
2022/09/13 08:15:53;;;;;;;2.92;2.20;;;;;;;19.61;42.35;94679.38;5109820;28;20115;-71
2022/09/13 08:18:19;;;;;;;3.75;2.30;;;;;;;19.45;42.69;94678.78;5109751;28;20112;-71
2022/09/13 08:20:44;;;;;;;2.83;2.25;;;;;;;19.49;44.40;94680.84;5092826;28;20040;-71
2022/09/13 08:23:11;;;;;;;3.53;2.28;;;;;;;19.60;42.25;94675.09;5075766;28;20047;-71
2022/09/13 08:25:37;;;;;;;3.65;2.13;;;;;;;19.68;42.09;94676.84;5076085;28;20031;-71
2022/09/13 08:28:16;;;;;;;3.47;2.03;;;;;;;19.60;42.02;94659.28;5076041;28;20032;-71
2022/09/13 08:30:42;;;;;;;3.53;2.10;;;;;;;19.77;42.19;94674.91;5109619;28;20027;-71
2022/09/13 08:33:08;;;;;;;3.10;2.25;;;;;;;19.77;41.92;94678.34;5092703;28;20043;-71
2022/09/13 08:35:34;;;;;;;4.50;2.15;;;;;;;19.61;42.39;94668.00;5109628;28;20051;-71
2022/09/13 08:37:59;;;;;;;2.67;1.90;;;;;;;19.64;41.66;94660.56;5092495;28;20039;-71
2022/09/13 08:40:28;;;;;;;4.65;2.13;;;;;;;19.55;42.16;94677.47;5110854;28;20019;-71
2022/09/13 08:42:53;;;;;;;4.40;2.30;;;;;;;19.47;41.45;94671.50;5092894;28;20031;-71
2022/09/13 08:45:18;;;;;;;3.15;2.40;;;;;;;19.28;42.02;94676.38;5110783;28;20406;-71
2022/09/13 08:47:51;;;;;;;4.15;2.20;;;;;;;19.31;42.38;94673.34;5092436;28;20031;-72
2022/09/13 08:50:18;;;;;;;6.68;2.40;;;;;;;19.31;42.52;94669.91;5109528;28;20028;-71
2022/09/13 08:52:45;;;;;;;3.92;2.22;;;;;;;19.30;42.53;94668.25;5109371;28;20027;-71
2022/09/13 08:55:40;;;;;;;2.80;2.10;;;;;;;19.30;41.98;94663.81;5109631;28;20073;-72
2022/09/13 08:58:16;;;;;;;3.50;2.00;;;;;;;19.37;41.63;94669.97;5111739;28;20112;-71
2022/09/13 09:00:43;;;;;;;3.58;1.77;;;;;;;19.38;38.29;94662.88;5113174;28;20569;-71
2022/09/13 09:03:30;;;;;;;3.53;1.77;;;;;;;19.28;37.97;94660.56;5096024;28;20093;-72
2022/09/13 09:05:55;;;;;;;3.97;1.80;;;;;;;19.29;39.53;94662.19;5114270;28;20024;-71
2022/09/13 09:08:30;;;;;;;3.45;1.83;;;;;;;19.24;38.60;94654.00;5112964;28;20023;-72
2022/09/13 09:10:56;;;;;;;3.30;1.60;;;;;;;19.44;39.66;94664.78;5079404;28;20413;-71
2022/09/13 09:13:33;;;;;;;3.67;1.50;;;;;;;19.53;37.55;94650.53;5095674;28;20059;-71
2022/09/13 09:16:01;;;;;;;2.58;1.65;;;;;;;19.70;38.23;94652.97;5096082;28;20482;-71
2022/09/13 09:18:32;;;;;;;2.80;1.80;;;;;;;19.99;38.87;94658.09;5095972;28;20048;-72
2022/09/13 09:21:00;;;;;;;2.03;1.52;;;;;;;20.22;40.18;94654.44;5095818;28;20035;-72
2022/09/13 09:23:34;;;;;;;2.97;1.70;;;;;;;20.27;38.11;94652.88;5096000;28;20040;-71
2022/09/13 09:26:22;;;;;;;2.85;1.70;;;;;;;20.34;38.21;94660.84;5079189;28;20055;-71
2022/09/13 09:29:07;;;;;;;3.17;1.80;;;;;;;20.28;38.06;94653.66;5113915;27;20054;-72
2022/09/13 09:31:51;;;;;;;3.13;1.90;;;;;;;20.24;37.98;94655.06;5113534;28;20046;-71
2022/09/13 09:34:30;;;;;;;2.80;1.88;;;;;;;20.41;38.40;94651.16;5112394;28;20031;-71
2022/09/13 09:37:02;;;;;;;2.20;1.60;;;;;;;20.51;37.41;94656.91;5113793;28;20110;-71
2022/09/13 09:39:31;;;;;;;2.10;1.63;;;;;;;20.44;35.65;94634.94;5112514;28;20066;-71
2022/09/13 09:41:57;;;;;;;2.60;1.70;;;;;;;20.35;36.18;94641.38;5079094;28;20043;-71
2022/09/13 09:44:26;;;;;;;3.53;1.88;;;;;;;20.26;36.28;94631.97;5095422;28;20430;-71
2022/09/13 09:47:40;;;;;;;5.55;1.70;;;;;;;20.45;36.25;94641.84;5112162;28;20189;-71
2022/09/13 09:50:29;;;;;;;3.22;1.80;;;;;;;20.34;36.07;94634.47;5073664;28;20032;-71
2022/09/13 09:53:09;;;;;;;4.32;1.70;;;;;;;20.30;36.16;94638.47;5073998;28;20122;-72
2022/09/13 09:55:47;;;;;;;2.53;1.80;;;;;;;20.28;36.79;94629.94;5090663;28;20043;-71
2022/09/13 09:58:15;;;;;;;2.78;1.80;;;;;;;20.28;37.06;94627.28;5111896;28;20511;-72
2022/09/13 10:00:52;;;;;;;2.88;1.75;;;;;;;20.23;37.03;94624.44;5095245;28;20481;-71
2022/09/13 10:03:18;;;;;;;4.75;1.92;;;;;;;20.31;35.28;94625.13;5077940;28;20039;-72
2022/09/13 10:05:45;;;;;;;2.75;2.00;;;;;;;20.41;34.89;94623.94;5078022;28;20535;-72
2022/09/13 10:08:25;;;;;;;2.05;1.58;;;;;;;20.21;36.50;94610.63;5093997;28;20183;-71
2022/09/13 10:10:54;;;;;;;2.40;1.70;;;;;;;20.29;35.87;94616.56;5112930;28;20123;-71
2022/09/13 10:13:20;;;;;;;2.20;1.80;;;;;;;20.28;35.24;94619.38;5111612;28;20040;-71
2022/09/13 10:15:57;;;;;;;3.22;1.70;;;;;;;20.24;34.86;94623.44;5077741;28;20032;-71
2022/09/13 10:18:24;;;;;;;3.35;1.70;;;;;;;20.32;34.19;94604.81;5094740;28;20138;-71
2022/09/13 10:21:18;;;;;;;3.17;1.80;;;;;;;20.36;34.83;94600.78;5094845;28;20036;-71
2022/09/13 10:23:49;;;;;;;3.15;1.70;;;;;;;20.28;36.23;94593.00;5112844;28;20035;-71
2022/09/13 10:26:22;;;;;;;2.55;1.80;;;;;;;20.36;37.00;94602.59;5094669;28;20034;-71
2022/09/13 10:28:56;;;;;;;2.50;1.77;;;;;;;20.37;35.73;94591.88;5111470;28;20042;-72
2022/09/13 10:31:26;;;;;;;2.53;1.90;;;;;;;20.41;36.15;94602.84;5094314;28;20027;-71
2022/09/13 10:33:57;;;;;;;2.85;2.10;;;;;;;20.25;36.70;94602.16;5111375;28;20027;-71
2022/09/13 10:36:26;;;;;;;2.55;2.00;;;;;;;20.28;36.49;94598.28;5094373;28;20020;-71
2022/09/13 10:39:16;;;;;;;3.70;2.03;;;;;;;20.39;36.61;94595.13;5094461;28;20043;-71
2022/09/13 10:41:42;;;;;;;2.88;1.90;;;;;;;20.38;36.81;94588.22;5111150;28;20102;-71
2022/09/13 10:44:40;;;;;;;3.25;2.00;;;;;;;20.51;35.82;94592.78;5094031;28;20564;-71
2022/09/13 10:47:09;;;;;;;2.58;1.92;;;;;;;20.30;36.16;94596.28;5110960;28;20023;-71
2022/09/13 10:49:34;;;;;;;2.72;2.08;;;;;;;20.53;36.06;94591.63;5094654;28;20471;-71
2022/09/13 10:52:00;;;;;;;3.53;2.30;;;;;;;20.53;35.64;94572.31;5110750;28;20027;-71
2022/09/13 10:54:27;;;;;;;3.00;2.15;;;;;;;20.67;35.44;94581.13;5093767;28;20417;-71
2022/09/13 10:56:53;;;;;;;3.83;2.00;;;;;;;20.84;34.76;94576.31;5077088;28;20027;-71
2022/09/13 10:59:28;;;;;;;3.28;2.10;;;;;;;20.78;35.21;94577.94;5093863;28;20031;-71
2022/09/13 11:02:16;;;;;;;2.28;1.83;;;;;;;20.90;35.55;94570.28;5094642;28;20020;-71
2022/09/13 11:05:09;;;;;;;2.53;1.98;;;;;;;20.98;35.15;94572.75;5112249;28;20097;-71
2022/09/13 11:07:40;;;;;;;2.67;1.88;;;;;;;21.09;34.21;94571.34;5111821;28;20477;-71
2022/09/13 11:10:09;;;;;;;3.78;1.83;;;;;;;21.17;34.28;94566.75;5110426;28;20093;-71
2022/09/13 11:13:11;;;;;;;2.67;2.00;;;;;;;21.14;33.63;94572.38;5110343;28;20124;-72
2022/09/13 11:15:57;;;;;;;2.80;1.90;;;;;;;21.32;34.62;94576.34;5110447;28;20035;-72
2022/09/13 11:18:50;;;;;;;2.83;2.00;;;;;;;21.36;34.13;94575.72;5093480;28;20067;-71
2022/09/13 11:21:46;;;;;;;2.75;2.03;;;;;;;21.20;33.84;94570.78;5111471;28;20032;-71
2022/09/13 11:24:53;;;;;;;2.80;2.10;;;;;;;21.32;34.43;94578.97;5111861;28;20478;-71
2022/09/13 11:27:55;;;;;;;2.65;2.03;;;;;;;21.19;34.37;94577.91;5048546;28;20037;-71
2022/09/13 11:30:24;;;;;;;3.15;1.95;;;;;;;21.33;33.44;94552.34;5111482;28;20092;-71
2022/09/13 11:32:58;;;;;;;2.67;2.05;;;;;;;21.33;35.22;94560.25;5076458;28;20145;-72
2022/09/13 11:35:33;;;;;;;5.25;2.20;;;;;;;21.30;34.56;94562.50;5111372;28;20036;-71
2022/09/13 11:38:20;;;;;;;2.95;2.13;;;;;;;21.38;34.33;94554.41;5093091;28;20051;-71
2022/09/13 11:41:10;;;;;;;3.60;2.00;;;;;;;21.42;34.24;94553.84;5111422;28;20028;-71
2022/09/13 11:43:42;;;;;;;3.70;2.20;;;;;;;21.39;33.66;94554.22;5110091;28;20032;-71
2022/09/13 11:46:15;;;;;;;3.05;2.05;;;;;;;21.41;33.58;94546.09;5111325;28;20038;-71
2022/09/13 11:48:49;;;;;;;2.38;1.83;;;;;;;21.25;33.24;94551.72;5093985;28;20033;-71
2022/09/13 11:51:24;;;;;;;6.78;2.08;;;;;;;21.36;33.44;94544.00;5111117;28;20512;-72
2022/09/13 11:54:02;;;;;;;2.13;1.90;;;;;;;21.51;32.84;94551.00;5110309;28;20039;-72